Oxford, KS

9:29 AM CDT on September 21, 2014 (GMT -0500)
Col Jabara | Change Station
CLOSE
Current Station
Airport
Location: Wichita Jabara,
Elevation: 1421 ft
Nearby Weather Stations

Elev 1421 ft 37.75 °N, 97.22 °W | Updated 35 minutes ago

Clear
Clear
65 °F
Feels Like 65 °F
N
10
Wind Variable Wind from NE

Today
High -- | Low -- °F
--% Chance of Precip.
Yesterday
High -- | Low -- °F
Precip. -- in
7:15 AM 7:27 PM
Waning Crescent, 6% visible
Pressure 30.16 in
Visibility 10.0 miles
Clouds Clear
Dew Point 56 °F
Humidity 73%
Rainfall 0.00 in
Snow Depth Not available.
UV 1 out of 12
Pollen 5.60 out of 12
Air Quality Not available.
Flu Activity Not available.
METAR KAAO 211354Z AUTO 04009KT 10SM CLR 18/13 A3018 RMK AO2 SLP211 T01830133

More Conditions Fewer Conditions

Pressure 30.16 in
Visibility 10.0 miles
Clouds Clear
Dew Point 56 °F
Humidity 73%
Rainfall 0.00 in
Snow Depth Not available.
UV 1 out of 12
Pollen 5.60 out of 12
Air Quality Not available.
Flu Activity Not available.
METAR KAAO 211354Z AUTO 04009KT 10SM CLR 18/13 A3018 RMK AO2 SLP211 T01830133

More Conditions Fewer Conditions

10-Day Weather Forecast

Almanac

Astronomy

Sep. 21, 2014 Rise Set
Actual Time 7:15 AM CDT 7:27 PM CDT
Civil Twilight 6:49 AM CDT 7:53 PM CDT
Nautical Twilight 6:19 AM CDT 8:23 PM CDT
Astronomical Twilight 5:48 AM CDT 8:54 PM CDT
Moon 4:53 AM CDT 6:02 PM CDT
Length of Visible Light 13h 03m
Length of Day
12h 11m
Tomorrow will be 2m 23s shorter.
Waning Crescent, 6% of the Moon is Illuminated
Today
Waning Crescent
Sep 24
New
Oct 1
First Quarter
Oct 8
Full
Oct 15
Last Quarter

Today's Extremes

State Highs State Lows

Community

WunderPhotos

Upload Photos

1,755,159 photos uploaded!

Nearby

Snow Depth

Station Depth Elevation
No new snow has been reported.

Earthquake Activity

City Distance Mag. Time & Date
Medford, Oklahoma 44 miles 3.2 2:10 AM CDT
2014-09-20
Luther, Oklahoma 111 miles 2.7 4:47 PM CDT
2014-09-19
Guthrie, Oklahoma 101 miles 3.6 12:23 PM CDT
2014-09-19
Jones, Oklahoma 117 miles 2.8 1:13 AM CDT
2014-09-19
Minimum magnitude displayed is 2.5.

Coastal Water Temperatures

Place Temperature
No Stations Reporting

Nearby Weather Stations